sensor_id;sensor_type;location;lat;lon;timestamp;P1;durP1;ratioP1;P2;durP2;ratioP2
20065;SDS011;10193;48.884;9.182;2023-08-17T00:00:36;3.70;;;3.40;;
20065;SDS011;10193;48.884;9.182;2023-08-17T00:03:03;3.42;;;3.22;;
20065;SDS011;10193;48.884;9.182;2023-08-17T00:05:30;4.15;;;3.30;;
20065;SDS011;10193;48.884;9.182;2023-08-17T00:07:59;3.45;;;3.25;;
20065;SDS011;10193;48.884;9.182;2023-08-17T00:10:27;3.35;;;3.15;;
20065;SDS011;10193;48.884;9.182;2023-08-17T00:12:54;3.70;;;3.40;;
20065;SDS011;10193;48.884;9.182;2023-08-17T00:15:21;4.13;;;3.72;;
20065;SDS011;10193;48.884;9.182;2023-08-17T00:17:49;3.35;;;3.15;;
20065;SDS011;10193;48.884;9.182;2023-08-17T00:20:16;3.58;;;3.28;;
20065;SDS011;10193;48.884;9.182;2023-08-17T00:22:42;3.75;;;3.38;;
20065;SDS011;10193;48.884;9.182;2023-08-17T00:25:09;3.38;;;3.13;;
20065;SDS011;10193;48.884;9.182;2023-08-17T00:27:36;3.42;;;3.22;;
20065;SDS011;10193;48.884;9.182;2023-08-17T00:30:03;3.63;;;3.33;;
20065;SDS011;10193;48.884;9.182;2023-08-17T00:32:30;3.67;;;3.45;;
20065;SDS011;10193;48.884;9.182;2023-08-17T00:34:58;3.42;;;3.22;;
20065;SDS011;10193;48.884;9.182;2023-08-17T00:37:25;4.10;;;3.80;;
20065;SDS011;10193;48.884;9.182;2023-08-17T00:39:51;4.13;;;3.75;;
20065;SDS011;10193;48.884;9.182;2023-08-17T00:42:18;4.00;;;3.45;;
20065;SDS011;10193;48.884;9.182;2023-08-17T00:44:44;3.72;;;3.53;;
20065;SDS011;10193;48.884;9.182;2023-08-17T00:47:11;4.00;;;3.60;;
20065;SDS011;10193;48.884;9.182;2023-08-17T00:49:38;4.13;;;3.83;;
20065;SDS011;10193;48.884;9.182;2023-08-17T00:52:06;3.70;;;3.40;;
20065;SDS011;10193;48.884;9.182;2023-08-17T00:54:33;4.20;;;3.90;;
20065;SDS011;10193;48.884;9.182;2023-08-17T00:57:00;4.10;;;3.80;;
20065;SDS011;10193;48.884;9.182;2023-08-17T00:59:28;4.65;;;4.00;;
20065;SDS011;10193;48.884;9.182;2023-08-17T01:01:55;4.03;;;3.72;;
20065;SDS011;10193;48.884;9.182;2023-08-17T01:04:22;4.28;;;3.97;;
20065;SDS011;10193;48.884;9.182;2023-08-17T01:06:49;4.05;;;3.75;;
20065;SDS011;10193;48.884;9.182;2023-08-17T01:09:17;4.18;;;3.88;;
20065;SDS011;10193;48.884;9.182;2023-08-17T01:11:45;4.03;;;3.75;;
20065;SDS011;10193;48.884;9.182;2023-08-17T01:14:18;4.00;;;3.70;;
20065;SDS011;10193;48.884;9.182;2023-08-17T01:16:54;4.07;;;3.78;;
20065;SDS011;10193;48.884;9.182;2023-08-17T01:19:27;4.03;;;3.72;;
20065;SDS011;10193;48.884;9.182;2023-08-17T01:21:54;4.00;;;3.70;;
20065;SDS011;10193;48.884;9.182;2023-08-17T01:24:27;4.28;;;3.97;;
20065;SDS011;10193;48.884;9.182;2023-08-17T01:26:54;4.47;;;4.07;;
20065;SDS011;10193;48.884;9.182;2023-08-17T01:29:21;3.95;;;3.70;;
20065;SDS011;10193;48.884;9.182;2023-08-17T01:31:50;4.50;;;4.10;;
20065;SDS011;10193;48.884;9.182;2023-08-17T01:34:22;4.50;;;4.10;;
20065;SDS011;10193;48.884;9.182;2023-08-17T01:36:50;4.20;;;3.90;;
20065;SDS011;10193;48.884;9.182;2023-08-17T01:39:19;4.60;;;4.18;;
20065;SDS011;10193;48.884;9.182;2023-08-17T01:41:53;4.07;;;3.78;;
20065;SDS011;10193;48.884;9.182;2023-08-17T01:44:22;4.28;;;3.92;;
20065;SDS011;10193;48.884;9.182;2023-08-17T01:46:50;4.43;;;4.03;;
20065;SDS011;10193;48.884;9.182;2023-08-17T01:49:16;4.07;;;3.78;;
20065;SDS011;10193;48.884;9.182;2023-08-17T01:51:43;4.25;;;3.85;;
20065;SDS011;10193;48.884;9.182;2023-08-17T01:54:10;4.10;;;3.80;;
20065;SDS011;10193;48.884;9.182;2023-08-17T01:56:36;3.75;;;3.45;;
20065;SDS011;10193;48.884;9.182;2023-08-17T01:59:05;4.80;;;3.63;;
20065;SDS011;10193;48.884;9.182;2023-08-17T02:01:31;3.70;;;3.40;;
20065;SDS011;10193;48.884;9.182;2023-08-17T02:03:58;3.95;;;3.58;;
20065;SDS011;10193;48.884;9.182;2023-08-17T02:06:27;3.42;;;3.22;;
20065;SDS011;10193;48.884;9.182;2023-08-17T02:08:54;3.85;;;3.55;;
20065;SDS011;10193;48.884;9.182;2023-08-17T02:11:20;3.50;;;3.20;;
20065;SDS011;10193;48.884;9.182;2023-08-17T02:13:47;3.50;;;3.20;;
20065;SDS011;10193;48.884;9.182;2023-08-17T02:16:15;3.60;;;3.30;;
20065;SDS011;10193;48.884;9.182;2023-08-17T02:18:42;4.25;;;3.33;;
20065;SDS011;10193;48.884;9.182;2023-08-17T02:21:08;3.50;;;3.20;;
20065;SDS011;10193;48.884;9.182;2023-08-17T02:23:35;3.53;;;3.22;;
20065;SDS011;10193;48.884;9.182;2023-08-17T02:26:02;3.67;;;3.38;;
20065;SDS011;10193;48.884;9.182;2023-08-17T02:28:28;3.45;;;3.25;;
20065;SDS011;10193;48.884;9.182;2023-08-17T02:30:55;3.75;;;3.42;;
20065;SDS011;10193;48.884;9.182;2023-08-17T02:33:23;3.47;;;3.17;;
20065;SDS011;10193;48.884;9.182;2023-08-17T02:35:50;4.78;;;3.33;;
20065;SDS011;10193;48.884;9.182;2023-08-17T02:38:17;3.65;;;3.30;;
20065;SDS011;10193;48.884;9.182;2023-08-17T02:40:44;3.38;;;3.10;;
20065;SDS011;10193;48.884;9.182;2023-08-17T02:43:10;3.83;;;3.33;;
20065;SDS011;10193;48.884;9.182;2023-08-17T02:45:37;3.60;;;3.30;;
20065;SDS011;10193;48.884;9.182;2023-08-17T02:48:04;3.88;;;3.47;;
20065;SDS011;10193;48.884;9.182;2023-08-17T02:50:32;3.50;;;3.20;;
20065;SDS011;10193;48.884;9.182;2023-08-17T02:52:59;3.60;;;3.40;;
20065;SDS011;10193;48.884;9.182;2023-08-17T02:55:27;3.63;;;3.33;;
20065;SDS011;10193;48.884;9.182;2023-08-17T02:57:53;3.55;;;3.25;;
20065;SDS011;10193;48.884;9.182;2023-08-17T03:00:20;4.28;;;3.58;;
20065;SDS011;10193;48.884;9.182;2023-08-17T03:02:47;3.97;;;3.53;;
20065;SDS011;10193;48.884;9.182;2023-08-17T03:05:13;3.90;;;3.60;;
20065;SDS011;10193;48.884;9.182;2023-08-17T03:07:41;3.80;;;3.50;;
20065;SDS011;10193;48.884;9.182;2023-08-17T03:10:08;3.90;;;3.60;;
20065;SDS011;10193;48.884;9.182;2023-08-17T03:12:35;4.00;;;3.70;;
20065;SDS011;10193;48.884;9.182;2023-08-17T03:15:02;3.78;;;3.47;;
20065;SDS011;10193;48.884;9.182;2023-08-17T03:17:29;4.80;;;3.88;;
20065;SDS011;10193;48.884;9.182;2023-08-17T03:19:56;3.90;;;3.60;;
20065;SDS011;10193;48.884;9.182;2023-08-17T03:22:24;5.13;;;3.70;;
20065;SDS011;10193;48.884;9.182;2023-08-17T03:24:54;3.78;;;3.47;;
20065;SDS011;10193;48.884;9.182;2023-08-17T03:27:21;4.00;;;3.70;;
20065;SDS011;10193;48.884;9.182;2023-08-17T03:29:49;4.50;;;4.10;;
20065;SDS011;10193;48.884;9.182;2023-08-17T03:32:16;4.50;;;4.10;;
20065;SDS011;10193;48.884;9.182;2023-08-17T03:34:43;4.28;;;3.97;;
20065;SDS011;10193;48.884;9.182;2023-08-17T03:37:09;4.25;;;3.95;;
20065;SDS011;10193;48.884;9.182;2023-08-17T03:39:36;6.35;;;4.10;;
20065;SDS011;10193;48.884;9.182;2023-08-17T03:42:04;4.40;;;4.00;;
20065;SDS011;10193;48.884;9.182;2023-08-17T03:44:31;6.57;;;4.40;;
20065;SDS011;10193;48.884;9.182;2023-08-17T03:46:57;4.72;;;4.32;;
20065;SDS011;10193;48.884;9.182;2023-08-17T03:49:24;5.60;;;4.65;;
20065;SDS011;10193;48.884;9.182;2023-08-17T03:51:51;4.82;;;4.32;;
20065;SDS011;10193;48.884;9.182;2023-08-17T03:54:17;4.55;;;4.18;;
20065;SDS011;10193;48.884;9.182;2023-08-17T03:56:44;4.80;;;4.38;;
20065;SDS011;10193;48.884;9.182;2023-08-17T03:59:12;5.53;;;4.70;;
20065;SDS011;10193;48.884;9.182;2023-08-17T04:01:39;4.55;;;4.18;;
20065;SDS011;10193;48.884;9.182;2023-08-17T04:04:06;4.90;;;4.45;;
20065;SDS011;10193;48.884;9.182;2023-08-17T04:06:32;4.97;;;4.47;;
20065;SDS011;10193;48.884;9.182;2023-08-17T04:09:00;5.05;;;4.60;;
20065;SDS011;10193;48.884;9.182;2023-08-17T04:11:27;5.60;;;4.95;;
20065;SDS011;10193;48.884;9.182;2023-08-17T04:13:54;7.68;;;5.30;;
20065;SDS011;10193;48.884;9.182;2023-08-17T04:16:22;6.68;;;5.15;;
20065;SDS011;10193;48.884;9.182;2023-08-17T04:18:49;6.72;;;5.43;;
20065;SDS011;10193;48.884;9.182;2023-08-17T04:21:15;5.88;;;5.18;;
20065;SDS011;10193;48.884;9.182;2023-08-17T04:23:42;5.72;;;5.03;;
20065;SDS011;10193;48.884;9.182;2023-08-17T04:26:09;5.47;;;4.85;;
20065;SDS011;10193;48.884;9.182;2023-08-17T04:28:35;5.72;;;5.07;;
20065;SDS011;10193;48.884;9.182;2023-08-17T04:31:02;7.63;;;5.65;;
20065;SDS011;10193;48.884;9.182;2023-08-17T04:33:30;6.30;;;5.32;;
20065;SDS011;10193;48.884;9.182;2023-08-17T04:35:57;5.70;;;5.20;;
20065;SDS011;10193;48.884;9.182;2023-08-17T04:38:24;7.13;;;5.72;;
20065;SDS011;10193;48.884;9.182;2023-08-17T04:40:51;8.10;;;5.38;;
20065;SDS011;10193;48.884;9.182;2023-08-17T04:43:18;6.30;;;5.70;;
20065;SDS011;10193;48.884;9.182;2023-08-17T04:45:45;7.65;;;5.65;;
20065;SDS011;10193;48.884;9.182;2023-08-17T04:48:12;6.78;;;6.07;;
20065;SDS011;10193;48.884;9.182;2023-08-17T04:50:41;8.48;;;5.88;;
20065;SDS011;10193;48.884;9.182;2023-08-17T04:53:08;8.70;;;6.80;;
20065;SDS011;10193;48.884;9.182;2023-08-17T04:55:35;6.68;;;5.72;;
20065;SDS011;10193;48.884;9.182;2023-08-17T04:58:01;7.25;;;5.65;;
20065;SDS011;10193;48.884;9.182;2023-08-17T05:00:28;6.38;;;5.78;;
20065;SDS011;10193;48.884;9.182;2023-08-17T05:02:55;6.07;;;5.50;;
20065;SDS011;10193;48.884;9.182;2023-08-17T05:05:22;6.35;;;5.75;;
20065;SDS011;10193;48.884;9.182;2023-08-17T05:07:51;6.80;;;6.10;;
20065;SDS011;10193;48.884;9.182;2023-08-17T05:10:18;8.07;;;6.35;;
20065;SDS011;10193;48.884;9.182;2023-08-17T05:12:45;6.50;;;5.90;;
20065;SDS011;10193;48.884;9.182;2023-08-17T05:15:12;8.05;;;6.07;;
20065;SDS011;10193;48.884;9.182;2023-08-17T05:17:39;7.13;;;6.45;;
20065;SDS011;10193;48.884;9.182;2023-08-17T05:20:06;6.72;;;6.07;;
20065;SDS011;10193;48.884;9.182;2023-08-17T05:22:34;7.88;;;6.43;;
20065;SDS011;10193;48.884;9.182;2023-08-17T05:25:02;7.55;;;6.43;;
20065;SDS011;10193;48.884;9.182;2023-08-17T05:27:29;6.53;;;5.85;;
20065;SDS011;10193;48.884;9.182;2023-08-17T05:29:56;8.55;;;6.40;;
20065;SDS011;10193;48.884;9.182;2023-08-17T05:32:23;7.00;;;6.40;;
20065;SDS011;10193;48.884;9.182;2023-08-17T05:34:49;7.57;;;6.60;;
20065;SDS011;10193;48.884;9.182;2023-08-17T05:37:16;7.43;;;6.63;;
20065;SDS011;10193;48.884;9.182;2023-08-17T05:39:43;8.15;;;7.35;;
20065;SDS011;10193;48.884;9.182;2023-08-17T05:42:11;7.63;;;6.93;;
20065;SDS011;10193;48.884;9.182;2023-08-17T05:44:37;7.90;;;6.60;;
20065;SDS011;10193;48.884;9.182;2023-08-17T05:47:04;7.63;;;6.88;;
20065;SDS011;10193;48.884;9.182;2023-08-17T05:49:31;9.20;;;7.25;;
20065;SDS011;10193;48.884;9.182;2023-08-17T05:51:57;7.85;;;7.15;;
20065;SDS011;10193;48.884;9.182;2023-08-17T05:54:24;8.15;;;6.80;;
20065;SDS011;10193;48.884;9.182;2023-08-17T05:56:51;8.90;;;7.82;;
20065;SDS011;10193;48.884;9.182;2023-08-17T05:59:19;8.38;;;7.43;;
20065;SDS011;10193;48.884;9.182;2023-08-17T06:01:45;7.80;;;6.80;;
20065;SDS011;10193;48.884;9.182;2023-08-17T06:04:12;8.68;;;7.78;;
20065;SDS011;10193;48.884;9.182;2023-08-17T06:06:38;9.18;;;7.55;;
20065;SDS011;10193;48.884;9.182;2023-08-17T06:09:05;8.43;;;7.47;;
20065;SDS011;10193;48.884;9.182;2023-08-17T06:11:33;9.10;;;8.23;;
20065;SDS011;10193;48.884;9.182;2023-08-17T06:14:00;8.65;;;7.85;;
20065;SDS011;10193;48.884;9.182;2023-08-17T06:16:28;8.20;;;7.50;;
20065;SDS011;10193;48.884;9.182;2023-08-17T06:18:55;8.75;;;7.55;;
20065;SDS011;10193;48.884;9.182;2023-08-17T06:21:21;8.13;;;7.35;;
20065;SDS011;10193;48.884;9.182;2023-08-17T06:23:48;8.30;;;7.60;;
20065;SDS011;10193;48.884;9.182;2023-08-17T06:26:15;8.63;;;7.65;;
20065;SDS011;10193;48.884;9.182;2023-08-17T06:28:41;8.20;;;7.38;;
20065;SDS011;10193;48.884;9.182;2023-08-17T06:31:08;9.68;;;7.80;;
20065;SDS011;10193;48.884;9.182;2023-08-17T06:33:36;8.10;;;7.30;;
20065;SDS011;10193;48.884;9.182;2023-08-17T06:36:03;7.78;;;7.10;;
20065;SDS011;10193;48.884;9.182;2023-08-17T06:38:30;8.50;;;7.07;;
20065;SDS011;10193;48.884;9.182;2023-08-17T06:40:56;8.20;;;7.40;;
20065;SDS011;10193;48.884;9.182;2023-08-17T06:43:23;8.32;;;7.28;;
20065;SDS011;10193;48.884;9.182;2023-08-17T06:45:50;8.32;;;7.38;;
20065;SDS011;10193;48.884;9.182;2023-08-17T06:48:16;8.93;;;7.03;;
20065;SDS011;10193;48.884;9.182;2023-08-17T06:50:44;8.10;;;7.30;;
20065;SDS011;10193;48.884;9.182;2023-08-17T06:53:11;7.70;;;7.00;;
20065;SDS011;10193;48.884;9.182;2023-08-17T06:55:38;8.00;;;7.13;;
20065;SDS011;10193;48.884;9.182;2023-08-17T06:58:04;7.68;;;6.97;;
20065;SDS011;10193;48.884;9.182;2023-08-17T07:00:31;7.57;;;6.88;;
20065;SDS011;10193;48.884;9.182;2023-08-17T07:02:58;6.95;;;6.25;;
20065;SDS011;10193;48.884;9.182;2023-08-17T07:05:25;6.93;;;6.32;;
20065;SDS011;10193;48.884;9.182;2023-08-17T07:07:54;6.90;;;6.38;;
20065;SDS011;10193;48.884;9.182;2023-08-17T07:10:20;7.55;;;6.30;;
20065;SDS011;10193;48.884;9.182;2023-08-17T07:12:47;7.68;;;6.65;;
20065;SDS011;10193;48.884;9.182;2023-08-17T07:15:14;6.90;;;6.30;;
20065;SDS011;10193;48.884;9.182;2023-08-17T07:17:41;6.32;;;5.72;;
20065;SDS011;10193;48.884;9.182;2023-08-17T07:20:07;7.47;;;6.28;;
20065;SDS011;10193;48.884;9.182;2023-08-17T07:22:36;6.13;;;5.63;;
20065;SDS011;10193;48.884;9.182;2023-08-17T07:25:04;6.25;;;5.75;;
20065;SDS011;10193;48.884;9.182;2023-08-17T07:27:33;6.18;;;5.68;;
20065;SDS011;10193;48.884;9.182;2023-08-17T07:30:00;6.25;;;5.68;;
20065;SDS011;10193;48.884;9.182;2023-08-17T07:32:27;5.55;;;5.15;;
20065;SDS011;10193;48.884;9.182;2023-08-17T07:34:53;6.13;;;5.63;;
20065;SDS011;10193;48.884;9.182;2023-08-17T07:37:20;6.28;;;5.68;;
20065;SDS011;10193;48.884;9.182;2023-08-17T07:39:47;6.72;;;6.13;;
20065;SDS011;10193;48.884;9.182;2023-08-17T07:42:15;6.20;;;5.70;;
20065;SDS011;10193;48.884;9.182;2023-08-17T07:44:41;6.32;;;5.72;;
20065;SDS011;10193;48.884;9.182;2023-08-17T07:47:08;6.47;;;5.88;;
20065;SDS011;10193;48.884;9.182;2023-08-17T07:49:35;6.05;;;5.55;;
20065;SDS011;10193;48.884;9.182;2023-08-17T07:52:01;6.13;;;5.63;;
20065;SDS011;10193;48.884;9.182;2023-08-17T07:54:28;6.40;;;5.80;;
20065;SDS011;10193;48.884;9.182;2023-08-17T07:56:55;5.85;;;5.35;;
20065;SDS011;10193;48.884;9.182;2023-08-17T07:59:23;6.15;;;5.55;;
20065;SDS011;10193;48.884;9.182;2023-08-17T08:01:50;6.28;;;5.78;;
20065;SDS011;10193;48.884;9.182;2023-08-17T08:04:16;6.35;;;5.80;;
20065;SDS011;10193;48.884;9.182;2023-08-17T08:06:43;6.18;;;5.57;;
20065;SDS011;10193;48.884;9.182;2023-08-17T08:09:10;6.45;;;5.95;;
20065;SDS011;10193;48.884;9.182;2023-08-17T08:11:37;7.13;;;6.45;;
20065;SDS011;10193;48.884;9.182;2023-08-17T08:14:03;6.47;;;5.88;;
20065;SDS011;10193;48.884;9.182;2023-08-17T08:16:32;6.72;;;6.10;;
20065;SDS011;10193;48.884;9.182;2023-08-17T08:18:58;6.22;;;5.70;;
20065;SDS011;10193;48.884;9.182;2023-08-17T08:21:25;5.97;;;5.45;;
20065;SDS011;10193;48.884;9.182;2023-08-17T08:23:52;6.00;;;5.47;;
20065;SDS011;10193;48.884;9.182;2023-08-17T08:26:19;6.00;;;5.57;;
20065;SDS011;10193;48.884;9.182;2023-08-17T08:28:45;6.50;;;6.00;;
20065;SDS011;10193;48.884;9.182;2023-08-17T08:31:12;6.40;;;5.85;;
20065;SDS011;10193;48.884;9.182;2023-08-17T08:33:40;7.07;;;6.35;;
20065;SDS011;10193;48.884;9.182;2023-08-17T08:36:07;6.38;;;5.85;;
20065;SDS011;10193;48.884;9.182;2023-08-17T08:38:33;6.32;;;5.82;;
20065;SDS011;10193;48.884;9.182;2023-08-17T08:41:00;6.60;;;6.00;;
20065;SDS011;10193;48.884;9.182;2023-08-17T08:43:28;6.65;;;6.07;;
20065;SDS011;10193;48.884;9.182;2023-08-17T08:45:55;6.35;;;5.85;;
20065;SDS011;10193;48.884;9.182;2023-08-17T08:48:24;7.10;;;6.50;;
20065;SDS011;10193;48.884;9.182;2023-08-17T08:50:54;7.47;;;6.75;;
20065;SDS011;10193;48.884;9.182;2023-08-17T08:53:23;6.93;;;6.32;;
20065;SDS011;10193;48.884;9.182;2023-08-17T08:55:54;7.10;;;6.50;;
20065;SDS011;10193;48.884;9.182;2023-08-17T08:58:23;7.00;;;6.40;;
20065;SDS011;10193;48.884;9.182;2023-08-17T09:00:51;7.30;;;6.60;;
20065;SDS011;10193;48.884;9.182;2023-08-17T09:03:18;6.93;;;6.32;;
20065;SDS011;10193;48.884;9.182;2023-08-17T09:05:46;7.70;;;7.03;;
20065;SDS011;10193;48.884;9.182;2023-08-17T09:08:17;7.22;;;6.63;;
20065;SDS011;10193;48.884;9.182;2023-08-17T09:10:46;7.35;;;6.65;;
20065;SDS011;10193;48.884;9.182;2023-08-17T09:13:13;6.75;;;6.05;;
20065;SDS011;10193;48.884;9.182;2023-08-17T09:15:40;6.85;;;6.25;;
20065;SDS011;10193;48.884;9.182;2023-08-17T09:18:07;6.75;;;5.70;;
20065;SDS011;10193;48.884;9.182;2023-08-17T09:20:43;6.57;;;5.97;;
20065;SDS011;10193;48.884;9.182;2023-08-17T09:23:10;6.88;;;6.28;;
20065;SDS011;10193;48.884;9.182;2023-08-17T09:25:40;6.82;;;6.22;;
20065;SDS011;10193;48.884;9.182;2023-08-17T09:28:09;6.57;;;6.07;;
20065;SDS011;10193;48.884;9.182;2023-08-17T09:30:53;6.35;;;5.85;;
20065;SDS011;10193;48.884;9.182;2023-08-17T09:33:21;5.50;;;5.10;;
20065;SDS011;10193;48.884;9.182;2023-08-17T09:35:49;6.50;;;5.78;;
20065;SDS011;10193;48.884;9.182;2023-08-17T09:38:16;5.88;;;5.38;;
20065;SDS011;10193;48.884;9.182;2023-08-17T09:40:44;7.47;;;5.57;;
20065;SDS011;10193;48.884;9.182;2023-08-17T09:43:11;5.95;;;5.45;;
20065;SDS011;10193;48.884;9.182;2023-08-17T09:45:39;6.47;;;5.88;;
20065;SDS011;10193;48.884;9.182;2023-08-17T09:48:06;5.85;;;5.35;;
20065;SDS011;10193;48.884;9.182;2023-08-17T09:50:33;6.45;;;5.85;;
20065;SDS011;10193;48.884;9.182;2023-08-17T09:53:01;6.47;;;5.88;;
20065;SDS011;10193;48.884;9.182;2023-08-17T09:55:29;6.28;;;5.68;;
20065;SDS011;10193;48.884;9.182;2023-08-17T09:57:57;6.38;;;5.75;;
20065;SDS011;10193;48.884;9.182;2023-08-17T10:00:25;6.47;;;5.97;;
20065;SDS011;10193;48.884;9.182;2023-08-17T10:02:53;5.93;;;5.43;;
20065;SDS011;10193;48.884;9.182;2023-08-17T10:05:22;6.05;;;5.45;;
20065;SDS011;10193;48.884;9.182;2023-08-17T10:07:52;6.47;;;5.70;;
20065;SDS011;10193;48.884;9.182;2023-08-17T10:10:22;6.15;;;5.30;;
20065;SDS011;10193;48.884;9.182;2023-08-17T10:12:53;5.97;;;5.38;;
20065;SDS011;10193;48.884;9.182;2023-08-17T10:15:29;6.47;;;5.88;;
20065;SDS011;10193;48.884;9.182;2023-08-17T10:17:58;6.07;;;5.57;;
20065;SDS011;10193;48.884;9.182;2023-08-17T10:20:31;6.22;;;5.63;;
20065;SDS011;10193;48.884;9.182;2023-08-17T10:23:01;6.15;;;5.65;;
20065;SDS011;10193;48.884;9.182;2023-08-17T10:25:34;6.40;;;5.88;;
20065;SDS011;10193;48.884;9.182;2023-08-17T10:28:03;6.10;;;5.53;;
20065;SDS011;10193;48.884;9.182;2023-08-17T10:30:30;6.05;;;5.60;;
20065;SDS011;10193;48.884;9.182;2023-08-17T10:32:58;6.45;;;5.95;;
20065;SDS011;10193;48.884;9.182;2023-08-17T10:35:25;6.18;;;5.68;;
20065;SDS011;10193;48.884;9.182;2023-08-17T10:37:53;6.57;;;5.95;;
20065;SDS011;10193;48.884;9.182;2023-08-17T10:40:25;5.97;;;5.47;;
20065;SDS011;10193;48.884;9.182;2023-08-17T10:42:53;5.82;;;5.25;;
20065;SDS011;10193;48.884;9.182;2023-08-17T10:45:29;5.45;;;5.05;;
20065;SDS011;10193;48.884;9.182;2023-08-17T10:48:00;5.55;;;5.07;;
20065;SDS011;10193;48.884;9.182;2023-08-17T10:51:00;5.63;;;5.07;;
20065;SDS011;10193;48.884;9.182;2023-08-17T10:53:30;5.80;;;5.32;;
20065;SDS011;10193;48.884;9.182;2023-08-17T10:56:00;6.00;;;5.47;;
20065;SDS011;10193;48.884;9.182;2023-08-17T10:58:30;5.93;;;5.47;;
20065;SDS011;10193;48.884;9.182;2023-08-17T11:00:59;5.60;;;5.10;;
20065;SDS011;10193;48.884;9.182;2023-08-17T11:03:26;5.80;;;5.40;;
20065;SDS011;10193;48.884;9.182;2023-08-17T11:05:53;6.03;;;5.53;;
20065;SDS011;10193;48.884;9.182;2023-08-17T11:08:21;6.65;;;5.75;;
20065;SDS011;10193;48.884;9.182;2023-08-17T11:10:56;5.65;;;5.15;;
20065;SDS011;10193;48.884;9.182;2023-08-17T11:13:24;5.68;;;5.28;;
20065;SDS011;10193;48.884;9.182;2023-08-17T11:15:53;6.20;;;5.60;;
20065;SDS011;10193;48.884;9.182;2023-08-17T11:18:21;5.80;;;5.30;;
20065;SDS011;10193;48.884;9.182;2023-08-17T11:20:48;5.47;;;5.00;;
20065;SDS011;10193;48.884;9.182;2023-08-17T11:23:16;6.13;;;5.63;;
20065;SDS011;10193;48.884;9.182;2023-08-17T11:25:43;5.40;;;5.00;;
20065;SDS011;10193;48.884;9.182;2023-08-17T11:28:09;5.50;;;5.10;;
20065;SDS011;10193;48.884;9.182;2023-08-17T11:30:38;6.15;;;5.55;;
20065;SDS011;10193;48.884;9.182;2023-08-17T11:33:05;5.88;;;5.38;;
20065;SDS011;10193;48.884;9.182;2023-08-17T11:35:34;5.97;;;5.47;;
20065;SDS011;10193;48.884;9.182;2023-08-17T11:38:01;6.00;;;5.50;;
20065;SDS011;10193;48.884;9.182;2023-08-17T11:40:30;5.45;;;5.05;;
20065;SDS011;10193;48.884;9.182;2023-08-17T11:42:58;5.82;;;5.30;;
20065;SDS011;10193;48.884;9.182;2023-08-17T11:45:24;5.53;;;5.05;;
20065;SDS011;10193;48.884;9.182;2023-08-17T11:47:51;5.68;;;5.18;;
20065;SDS011;10193;48.884;9.182;2023-08-17T11:50:18;5.90;;;5.40;;
20065;SDS011;10193;48.884;9.182;2023-08-17T11:52:46;5.47;;;5.07;;
20065;SDS011;10193;48.884;9.182;2023-08-17T11:55:15;5.40;;;5.00;;
20065;SDS011;10193;48.884;9.182;2023-08-17T11:57:44;5.40;;;4.97;;
20065;SDS011;10193;48.884;9.182;2023-08-17T12:00:16;5.40;;;5.00;;
20065;SDS011;10193;48.884;9.182;2023-08-17T12:02:46;5.80;;;5.30;;
20065;SDS011;10193;48.884;9.182;2023-08-17T12:05:13;5.18;;;4.68;;
20065;SDS011;10193;48.884;9.182;2023-08-17T12:07:44;5.68;;;5.20;;
20065;SDS011;10193;48.884;9.182;2023-08-17T12:10:13;6.43;;;4.90;;
20065;SDS011;10193;48.884;9.182;2023-08-17T12:12:39;5.70;;;5.20;;
20065;SDS011;10193;48.884;9.182;2023-08-17T12:15:06;5.40;;;4.90;;
20065;SDS011;10193;48.884;9.182;2023-08-17T12:17:35;4.95;;;4.55;;
20065;SDS011;10193;48.884;9.182;2023-08-17T12:20:07;4.25;;;3.95;;
20065;SDS011;10193;48.884;9.182;2023-08-17T12:22:34;4.75;;;4.35;;
20065;SDS011;10193;48.884;9.182;2023-08-17T12:25:02;4.32;;;4.03;;
20065;SDS011;10193;48.884;9.182;2023-08-17T12:27:29;4.22;;;3.92;;
20065;SDS011;10193;48.884;9.182;2023-08-17T12:29:58;4.35;;;4.05;;
20065;SDS011;10193;48.884;9.182;2023-08-17T12:32:24;4.25;;;3.95;;
20065;SDS011;10193;48.884;9.182;2023-08-17T12:34:51;4.18;;;3.83;;
20065;SDS011;10193;48.884;9.182;2023-08-17T12:37:18;4.05;;;3.75;;
20065;SDS011;10193;48.884;9.182;2023-08-17T12:39:46;3.97;;;3.63;;
20065;SDS011;10193;48.884;9.182;2023-08-17T12:42:14;3.70;;;3.40;;
20065;SDS011;10193;48.884;9.182;2023-08-17T12:44:41;3.40;;;3.13;;
20065;SDS011;10193;48.884;9.182;2023-08-17T12:47:08;3.55;;;3.35;;
20065;SDS011;10193;48.884;9.182;2023-08-17T12:49:35;3.70;;;3.40;;
20065;SDS011;10193;48.884;9.182;2023-08-17T12:52:02;3.60;;;3.40;;
20065;SDS011;10193;48.884;9.182;2023-08-17T12:54:29;3.60;;;3.30;;
20065;SDS011;10193;48.884;9.182;2023-08-17T12:56:56;3.45;;;3.15;;
20065;SDS011;10193;48.884;9.182;2023-08-17T12:59:24;3.80;;;3.50;;
20065;SDS011;10193;48.884;9.182;2023-08-17T13:01:51;3.67;;;3.40;;
20065;SDS011;10193;48.884;9.182;2023-08-17T13:04:17;3.63;;;3.25;;
20065;SDS011;10193;48.884;9.182;2023-08-17T13:06:44;4.00;;;3.70;;
20065;SDS011;10193;48.884;9.182;2023-08-17T13:09:13;4.00;;;3.70;;
20065;SDS011;10193;48.884;9.182;2023-08-17T13:11:41;4.85;;;3.97;;
20065;SDS011;10193;48.884;9.182;2023-08-17T13:14:07;4.30;;;3.90;;
20065;SDS011;10193;48.884;9.182;2023-08-17T13:16:35;4.30;;;3.90;;
20065;SDS011;10193;48.884;9.182;2023-08-17T13:19:02;3.95;;;3.65;;
20065;SDS011;10193;48.884;9.182;2023-08-17T13:21:29;4.28;;;3.92;;
20065;SDS011;10193;48.884;9.182;2023-08-17T13:23:56;4.10;;;3.80;;
20065;SDS011;10193;48.884;9.182;2023-08-17T13:26:22;4.50;;;4.20;;
20065;SDS011;10193;48.884;9.182;2023-08-17T13:28:49;4.60;;;4.20;;
20065;SDS011;10193;48.884;9.182;2023-08-17T13:31:16;4.40;;;4.00;;
20065;SDS011;10193;48.884;9.182;2023-08-17T13:33:44;4.32;;;3.97;;
20065;SDS011;10193;48.884;9.182;2023-08-17T13:36:11;4.32;;;3.92;;
20065;SDS011;10193;48.884;9.182;2023-08-17T13:38:37;4.68;;;3.95;;
20065;SDS011;10193;48.884;9.182;2023-08-17T13:41:04;4.53;;;4.20;;
20065;SDS011;10193;48.884;9.182;2023-08-17T13:43:31;4.35;;;4.00;;
20065;SDS011;10193;48.884;9.182;2023-08-17T13:45:58;4.65;;;4.25;;
20065;SDS011;10193;48.884;9.182;2023-08-17T13:48:24;4.95;;;4.55;;
20065;SDS011;10193;48.884;9.182;2023-08-17T13:50:52;4.50;;;4.10;;
20065;SDS011;10193;48.884;9.182;2023-08-17T13:53:19;4.80;;;4.40;;
20065;SDS011;10193;48.884;9.182;2023-08-17T13:55:45;4.53;;;4.22;;
20065;SDS011;10193;48.884;9.182;2023-08-17T13:58:12;4.63;;;4.30;;
20065;SDS011;10193;48.884;9.182;2023-08-17T14:00:40;4.97;;;4.57;;
20065;SDS011;10193;48.884;9.182;2023-08-17T14:03:07;5.00;;;4.60;;
20065;SDS011;10193;48.884;9.182;2023-08-17T14:05:34;4.80;;;4.40;;
20065;SDS011;10193;48.884;9.182;2023-08-17T14:08:02;5.13;;;4.72;;
20065;SDS011;10193;48.884;9.182;2023-08-17T14:10:29;4.57;;;4.28;;
20065;SDS011;10193;48.884;9.182;2023-08-17T14:12:56;4.60;;;4.20;;
20065;SDS011;10193;48.884;9.182;2023-08-17T14:15:22;4.68;;;4.38;;
20065;SDS011;10193;48.884;9.182;2023-08-17T14:17:49;4.63;;;4.28;;
20065;SDS011;10193;48.884;9.182;2023-08-17T14:20:15;4.97;;;4.57;;
20065;SDS011;10193;48.884;9.182;2023-08-17T14:22:42;5.07;;;4.68;;
20065;SDS011;10193;48.884;9.182;2023-08-17T14:25:10;5.10;;;4.70;;
20065;SDS011;10193;48.884;9.182;2023-08-17T14:27:37;4.78;;;4.40;;
20065;SDS011;10193;48.884;9.182;2023-08-17T14:30:04;4.90;;;4.50;;
20065;SDS011;10193;48.884;9.182;2023-08-17T14:32:31;5.45;;;5.05;;
20065;SDS011;10193;48.884;9.182;2023-08-17T14:34:58;5.90;;;4.45;;
20065;SDS011;10193;48.884;9.182;2023-08-17T14:37:25;5.10;;;4.60;;
20065;SDS011;10193;48.884;9.182;2023-08-17T14:39:51;5.18;;;4.57;;
20065;SDS011;10193;48.884;9.182;2023-08-17T14:42:19;4.90;;;4.50;;
20065;SDS011;10193;48.884;9.182;2023-08-17T14:44:48;4.25;;;3.95;;
20065;SDS011;10193;48.884;9.182;2023-08-17T14:47:14;6.22;;;4.38;;
20065;SDS011;10193;48.884;9.182;2023-08-17T14:49:41;4.88;;;4.47;;